createdAt,value
2023-02-17T00:01:01.974Z,100.00
2023-02-17T00:03:28.752Z,100.00
2023-02-17T00:05:55.442Z,100.00
2023-02-17T00:08:22.170Z,100.00
2023-02-17T00:10:58.539Z,100.00
2023-02-17T00:13:26.065Z,100.00
2023-02-17T00:15:53.069Z,100.00
2023-02-17T00:18:19.892Z,100.00
2023-02-17T00:20:46.524Z,100.00
2023-02-17T00:23:13.532Z,100.00
2023-02-17T00:25:40.364Z,100.00
2023-02-17T00:28:07.425Z,100.00
2023-02-17T00:30:34.314Z,100.00
2023-02-17T00:33:01.010Z,100.00
2023-02-17T00:35:27.766Z,100.00
2023-02-17T00:37:54.374Z,100.00
2023-02-17T00:40:21.260Z,100.00
2023-02-17T00:42:49.254Z,100.00
2023-02-17T00:45:16.170Z,100.00
2023-02-17T00:47:42.811Z,100.00
2023-02-17T00:50:10.002Z,100.00
2023-02-17T00:52:36.737Z,100.00
2023-02-17T00:55:04.080Z,100.00
2023-02-17T00:57:32.453Z,100.00
2023-02-17T00:59:59.348Z,100.00
2023-02-17T01:02:26.122Z,100.00
2023-02-17T01:04:53.538Z,100.00
2023-02-17T01:07:20.314Z,100.00
2023-02-17T01:09:47.152Z,100.00
2023-02-17T01:12:13.881Z,100.00
2023-02-17T01:14:40.571Z,100.00
2023-02-17T01:17:07.345Z,100.00
2023-02-17T01:19:34.034Z,100.00
2023-02-17T01:22:01.374Z,100.00
2023-02-17T01:24:28.091Z,100.00
2023-02-17T01:26:55.028Z,100.00
2023-02-17T01:29:22.166Z,100.00
2023-02-17T01:31:48.872Z,100.00
2023-02-17T01:34:15.578Z,100.00
2023-02-17T01:36:42.296Z,100.00
2023-02-17T01:39:12.005Z,100.00
2023-02-17T01:41:38.628Z,100.00
2023-02-17T01:44:18.514Z,100.00
2023-02-17T01:46:47.685Z,100.00
2023-02-17T01:49:23.613Z,100.00
2023-02-17T01:51:56.963Z,100.00
2023-02-17T01:54:42.360Z,100.00
2023-02-17T01:57:11.719Z,100.00
2023-02-17T01:59:39.006Z,100.00
2023-02-17T02:02:06.944Z,100.00
2023-02-17T02:04:36.845Z,100.00
2023-02-17T02:07:10.757Z,100.00
2023-02-17T02:09:43.212Z,100.00
2023-02-17T02:12:22.224Z,100.00
2023-02-17T02:14:51.035Z,100.00
2023-02-17T02:17:39.808Z,100.00
2023-02-17T02:20:28.775Z,100.00
2023-02-17T02:23:49.876Z,100.00
2023-02-17T02:26:44.511Z,100.00
2023-02-17T02:29:39.170Z,100.00
2023-02-17T02:32:18.889Z,100.00
2023-02-17T02:34:52.442Z,100.00
2023-02-17T02:37:26.770Z,100.00
2023-02-17T02:39:55.512Z,100.00
2023-02-17T02:42:24.525Z,100.00
2023-02-17T02:44:51.697Z,100.00
2023-02-17T02:47:49.110Z,100.00
2023-02-17T02:50:38.907Z,100.00
2023-02-17T02:53:19.257Z,100.00
2023-02-17T02:56:13.847Z,100.00
2023-02-17T02:58:47.246Z,100.00
2023-02-17T03:01:45.180Z,100.00
2023-02-17T03:04:26.655Z,100.00
2023-02-17T03:06:58.964Z,100.00
2023-02-17T03:09:28.127Z,100.00
2023-02-17T03:11:57.378Z,100.00
2023-02-17T03:14:25.265Z,100.00
2023-02-17T03:16:52.716Z,100.00
2023-02-17T03:19:24.013Z,100.00
2023-02-17T03:22:05.794Z,100.00
2023-02-17T03:24:33.819Z,100.00
2023-02-17T03:27:00.506Z,100.00
2023-02-17T03:29:27.326Z,100.00
2023-02-17T03:31:54.226Z,100.00
2023-02-17T03:34:20.982Z,100.00
2023-02-17T03:36:47.680Z,100.00
2023-02-17T03:39:14.554Z,100.00
2023-02-17T03:41:41.271Z,100.00
2023-02-17T03:44:08.325Z,100.00
2023-02-17T03:46:35.415Z,100.00
2023-02-17T03:49:02.026Z,100.00
2023-02-17T03:51:28.711Z,100.00
2023-02-17T03:53:55.361Z,100.00
2023-02-17T03:56:22.149Z,100.00
2023-02-17T03:58:48.929Z,100.00
2023-02-17T04:01:16.040Z,100.00
2023-02-17T04:03:42.810Z,100.00
2023-02-17T04:06:10.600Z,100.00
2023-02-17T04:08:38.097Z,100.00
2023-02-17T04:11:06.659Z,100.00
2023-02-17T04:13:34.682Z,100.00
2023-02-17T04:16:01.615Z,100.00
2023-02-17T04:18:29.480Z,100.00
2023-02-17T04:20:56.572Z,100.00
2023-02-17T04:23:23.359Z,100.00
2023-02-17T04:25:50.298Z,100.00
2023-02-17T04:28:17.270Z,100.00
2023-02-17T04:30:48.974Z,100.00
2023-02-17T04:33:18.051Z,100.00
2023-02-17T04:35:45.255Z,100.00
2023-02-17T04:38:12.058Z,100.00
2023-02-17T04:40:39.135Z,100.00
2023-02-17T04:43:05.981Z,100.00
2023-02-17T04:45:32.731Z,100.00
2023-02-17T04:47:59.389Z,100.00
2023-02-17T04:50:26.292Z,100.00
2023-02-17T04:52:53.051Z,100.00
2023-02-17T04:55:20.845Z,100.00
2023-02-17T04:57:47.852Z,100.00
2023-02-17T05:00:14.760Z,100.00
2023-02-17T05:02:41.499Z,100.00
2023-02-17T05:05:09.270Z,100.00
2023-02-17T05:07:35.982Z,100.00
2023-02-17T05:10:02.892Z,100.00
2023-02-17T05:12:29.530Z,100.00
2023-02-17T05:14:56.255Z,100.00
2023-02-17T05:17:23.053Z,100.00
2023-02-17T05:19:49.752Z,100.00
2023-02-17T05:22:16.481Z,100.00
2023-02-17T05:24:43.276Z,100.00
2023-02-17T05:27:10.180Z,100.00
2023-02-17T05:29:36.894Z,100.00
2023-02-17T05:32:03.709Z,100.00
2023-02-17T05:34:30.771Z,100.00
2023-02-17T05:36:57.472Z,100.00
2023-02-17T05:39:24.278Z,100.00
2023-02-17T05:41:50.993Z,100.00
2023-02-17T05:44:18.608Z,100.00
2023-02-17T05:46:45.372Z,100.00
2023-02-17T05:49:12.057Z,100.00
2023-02-17T05:51:38.915Z,100.00
2023-02-17T05:54:06.250Z,100.00
2023-02-17T05:56:33.338Z,100.00
2023-02-17T05:59:00.704Z,100.00
2023-02-17T06:01:27.971Z,100.00
2023-02-17T06:03:54.727Z,100.00
2023-02-17T06:06:21.481Z,100.00
2023-02-17T06:08:48.233Z,100.00
2023-02-17T06:11:14.968Z,100.00
2023-02-17T06:13:41.674Z,100.00
2023-02-17T06:16:08.768Z,100.00
2023-02-17T06:18:35.668Z,100.00
2023-02-17T06:21:02.554Z,100.00
2023-02-17T06:23:29.471Z,100.00
2023-02-17T06:25:56.224Z,100.00
2023-02-17T06:28:22.917Z,100.00
2023-02-17T06:30:49.596Z,100.00
2023-02-17T06:33:16.333Z,100.00
2023-02-17T06:35:44.610Z,100.00
2023-02-17T06:38:20.409Z,100.00
2023-02-17T06:40:47.161Z,100.00
2023-02-17T06:43:14.005Z,100.00
2023-02-17T06:45:41.100Z,100.00
2023-02-17T06:48:07.950Z,100.00
2023-02-17T06:50:35.113Z,96.39
2023-02-17T06:53:01.839Z,94.94
2023-02-17T06:55:28.522Z,94.43
2023-02-17T06:57:55.183Z,86.96
2023-02-17T07:00:22.215Z,75.49
2023-02-17T07:02:49.076Z,71.77
2023-02-17T07:05:15.954Z,68.38
2023-02-17T07:07:42.888Z,61.07
2023-02-17T07:10:09.880Z,62.90
2023-02-17T07:12:36.647Z,69.37
2023-02-17T07:15:03.855Z,71.92
2023-02-17T07:17:31.482Z,64.60
2023-02-17T07:19:58.297Z,60.90
2023-02-17T07:22:26.750Z,55.43
2023-02-17T07:24:53.741Z,52.42
2023-02-17T07:27:20.421Z,47.33
2023-02-17T07:29:47.120Z,42.99
2023-02-17T07:32:13.798Z,44.99
2023-02-17T07:34:40.492Z,50.55
2023-02-17T07:37:08.417Z,52.51
2023-02-17T07:39:35.093Z,53.87
2023-02-17T07:42:05.259Z,52.37
2023-02-17T07:44:32.834Z,50.85
2023-02-17T07:47:00.717Z,48.67
2023-02-17T07:49:27.452Z,46.54
2023-02-17T07:51:54.204Z,43.82
2023-02-17T07:54:21.677Z,42.12
2023-02-17T07:56:49.239Z,41.59
2023-02-17T07:59:17.098Z,40.79
2023-02-17T08:01:43.835Z,40.77
2023-02-17T08:04:10.772Z,39.05
2023-02-17T08:06:40.113Z,37.09
2023-02-17T08:09:25.420Z,38.14
2023-02-17T08:12:10.751Z,36.21
2023-02-17T08:14:38.511Z,39.29
2023-02-17T08:17:08.228Z,38.23
2023-02-17T08:19:47.401Z,39.17
2023-02-17T08:22:17.186Z,39.09
2023-02-17T08:24:43.968Z,37.22
2023-02-17T08:27:10.681Z,37.10
2023-02-17T08:29:37.566Z,37.21
2023-02-17T08:32:04.501Z,35.38
2023-02-17T08:34:34.179Z,34.94
2023-02-17T08:37:02.511Z,36.05
2023-02-17T08:39:29.265Z,33.13
2023-02-17T08:41:56.254Z,32.31
2023-02-17T08:44:23.510Z,31.64
2023-02-17T08:46:51.869Z,33.00
2023-02-17T08:49:21.689Z,32.63
2023-02-17T08:51:49.193Z,34.08
2023-02-17T08:54:15.958Z,32.27
2023-02-17T08:56:43.904Z,31.86
2023-02-17T08:59:11.982Z,31.93
2023-02-17T09:01:39.761Z,30.60
2023-02-17T09:04:08.843Z,29.78
2023-02-17T09:06:44.626Z,30.01
2023-02-17T09:09:14.879Z,28.97
2023-02-17T09:11:42.157Z,30.44
2023-02-17T09:14:09.077Z,31.19
2023-02-17T09:16:36.193Z,32.42
2023-02-17T09:19:03.320Z,31.48
2023-02-17T09:21:30.090Z,27.61
2023-02-17T09:23:57.124Z,27.33
2023-02-17T09:26:23.947Z,27.95
2023-02-17T09:28:50.780Z,26.43
2023-02-17T09:31:19.997Z,26.27
2023-02-17T09:33:50.568Z,27.59
2023-02-17T09:36:24.406Z,28.13
2023-02-17T09:38:52.225Z,28.24
2023-02-17T09:41:26.088Z,27.38
2023-02-17T09:43:53.776Z,26.98
2023-02-17T09:46:32.436Z,29.01
2023-02-17T09:49:15.313Z,27.61
2023-02-17T09:51:53.699Z,27.17
2023-02-17T09:54:26.415Z,27.49
2023-02-17T09:56:55.792Z,25.96
2023-02-17T09:59:32.584Z,25.72
2023-02-17T10:02:01.356Z,25.61
2023-02-17T10:04:37.509Z,24.87
2023-02-17T10:07:46.021Z,26.01
2023-02-17T10:10:25.615Z,24.29
2023-02-17T10:12:56.963Z,23.60
2023-02-17T10:15:27.727Z,24.17
2023-02-17T10:18:05.768Z,23.91
2023-02-17T10:20:36.268Z,23.16
2023-02-17T10:23:22.556Z,23.29
2023-02-17T10:26:14.151Z,24.08
2023-02-17T10:29:41.775Z,22.93
2023-02-17T10:32:25.284Z,22.71
2023-02-17T10:34:59.107Z,22.81
2023-02-17T10:37:48.437Z,23.27
2023-02-17T10:40:20.437Z,23.58
2023-02-17T10:42:49.788Z,24.95
2023-02-17T10:45:41.062Z,24.36
2023-02-17T10:48:19.304Z,25.13
2023-02-17T10:50:46.919Z,25.50
2023-02-17T10:53:17.639Z,25.67
2023-02-17T10:56:08.355Z,26.11
2023-02-17T10:58:44.223Z,25.83
2023-02-17T11:01:12.035Z,25.34
2023-02-17T11:03:41.104Z,25.57
2023-02-17T11:06:26.309Z,23.13
2023-02-17T11:09:00.037Z,23.79
2023-02-17T11:11:32.177Z,25.46
2023-02-17T11:14:23.816Z,25.14
2023-02-17T11:17:13.115Z,26.07
2023-02-17T11:19:39.946Z,25.48
2023-02-17T11:22:29.948Z,25.63
2023-02-17T11:25:01.817Z,24.52
2023-02-17T11:27:28.505Z,24.39
2023-02-17T11:30:07.038Z,22.17
2023-02-17T11:32:33.916Z,24.41
2023-02-17T11:35:06.326Z,24.78
2023-02-17T11:37:37.745Z,22.70
2023-02-17T11:40:26.340Z,22.91
2023-02-17T11:42:58.511Z,22.95
2023-02-17T11:45:29.433Z,23.47
2023-02-17T11:48:22.120Z,23.30
2023-02-17T11:51:25.701Z,22.37
2023-02-17T11:54:23.073Z,23.03
2023-02-17T11:57:18.736Z,22.89
2023-02-17T12:00:05.705Z,22.68
2023-02-17T12:02:54.690Z,20.88
2023-02-17T12:05:56.273Z,21.46
2023-02-17T12:09:10.938Z,22.24
2023-02-17T12:11:37.657Z,22.69
2023-02-17T12:14:10.827Z,21.77
2023-02-17T12:17:02.855Z,23.55
2023-02-17T12:19:45.784Z,21.70
2023-02-17T12:22:15.438Z,24.24
2023-02-17T12:25:19.411Z,22.19
2023-02-17T12:28:07.582Z,21.34
2023-02-17T12:30:34.387Z,22.73
2023-02-17T12:33:19.678Z,21.40
2023-02-17T12:35:55.453Z,22.84
2023-02-17T12:38:33.005Z,22.83
2023-02-17T12:41:11.749Z,23.65
2023-02-17T12:43:48.052Z,22.39
2023-02-17T12:46:22.128Z,24.31
2023-02-17T12:49:07.554Z,22.88
2023-02-17T12:51:41.467Z,22.73
2023-02-17T12:54:22.933Z,25.36
2023-02-17T12:57:05.141Z,24.68
2023-02-17T12:59:39.262Z,26.05
2023-02-17T13:02:18.126Z,26.59
2023-02-17T13:04:52.549Z,27.58
2023-02-17T13:07:41.668Z,28.58
2023-02-17T13:10:30.076Z,30.91
2023-02-17T13:13:14.473Z,29.35
2023-02-17T13:15:46.281Z,31.21
2023-02-17T13:18:31.390Z,31.99
2023-02-17T13:20:58.194Z,32.25
2023-02-17T13:23:41.081Z,34.61
2023-02-17T13:26:20.640Z,34.62
2023-02-17T13:28:49.196Z,34.73
2023-02-17T13:31:26.277Z,35.82
2023-02-17T13:33:58.826Z,36.96
2023-02-17T13:36:28.207Z,36.69
2023-02-17T13:39:01.747Z,36.75
2023-02-17T13:41:48.808Z,37.00
2023-02-17T13:44:34.296Z,37.90
2023-02-17T13:47:06.162Z,37.31
2023-02-17T13:49:35.175Z,37.59
2023-02-17T13:52:17.532Z,38.29
2023-02-17T13:54:56.357Z,37.57
2023-02-17T13:57:29.246Z,38.48
2023-02-17T14:00:23.810Z,39.06
2023-02-17T14:03:37.967Z,39.25
2023-02-17T14:06:05.101Z,38.97
2023-02-17T14:08:42.966Z,38.95
2023-02-17T14:11:21.533Z,40.04
2023-02-17T14:13:51.424Z,40.62
2023-02-17T14:16:39.768Z,40.75
2023-02-17T14:19:19.441Z,42.00
2023-02-17T14:21:57.396Z,40.45
2023-02-17T14:24:44.574Z,41.55
2023-02-17T14:27:14.174Z,41.93
2023-02-17T14:29:50.281Z,40.78
2023-02-17T14:32:40.094Z,41.35
2023-02-17T14:35:14.108Z,43.06
2023-02-17T14:37:42.162Z,43.56
2023-02-17T14:40:18.377Z,42.57
2023-02-17T14:42:47.432Z,42.62
2023-02-17T14:45:15.327Z,43.15
2023-02-17T14:47:46.144Z,42.67
2023-02-17T14:50:13.370Z,44.91
2023-02-17T14:52:44.331Z,44.59
2023-02-17T14:55:18.898Z,44.99
2023-02-17T14:57:45.631Z,44.85
2023-02-17T15:00:14.478Z,46.40
2023-02-17T15:02:41.308Z,46.14
2023-02-17T15:05:08.506Z,46.42
2023-02-17T15:07:36.280Z,49.77
2023-02-17T15:10:14.342Z,50.71
2023-02-17T15:12:40.980Z,52.36
2023-02-17T15:15:13.903Z,54.21
2023-02-17T15:17:40.710Z,54.42
2023-02-17T15:20:10.269Z,55.61
2023-02-17T15:22:41.666Z,56.22
2023-02-17T15:25:16.857Z,56.82
2023-02-17T15:27:44.119Z,56.85
2023-02-17T15:30:13.940Z,56.25
2023-02-17T15:32:41.072Z,57.78
2023-02-17T15:35:18.230Z,58.87
2023-02-17T15:37:45.090Z,62.80
2023-02-17T15:40:28.401Z,66.24
2023-02-17T15:43:05.997Z,72.29
2023-02-17T15:45:33.462Z,71.14
2023-02-17T15:48:06.381Z,75.96
2023-02-17T15:50:33.203Z,74.23
2023-02-17T15:52:59.957Z,79.79
2023-02-17T15:55:28.315Z,85.61
2023-02-17T15:57:58.586Z,88.71
2023-02-17T16:00:28.409Z,89.63
2023-02-17T16:02:55.708Z,93.76
2023-02-17T16:05:24.426Z,92.62
2023-02-17T16:07:51.728Z,92.42
2023-02-17T16:10:21.485Z,100.00
2023-02-17T16:12:50.505Z,100.00
2023-02-17T16:15:23.033Z,100.00
2023-02-17T16:17:53.376Z,100.00
2023-02-17T16:20:29.228Z,100.00
2023-02-17T16:22:56.639Z,100.00
2023-02-17T16:25:23.615Z,100.00
2023-02-17T16:27:52.734Z,100.00
2023-02-17T16:30:19.556Z,100.00
2023-02-17T16:32:47.048Z,100.00
2023-02-17T16:35:15.600Z,100.00
2023-02-17T16:37:46.365Z,100.00
2023-02-17T16:40:17.200Z,100.00
2023-02-17T16:42:44.126Z,100.00
2023-02-17T16:45:15.763Z,100.00
2023-02-17T16:47:45.674Z,100.00
2023-02-17T16:50:21.608Z,100.00
2023-02-17T16:52:48.395Z,100.00
2023-02-17T16:55:17.487Z,100.00
2023-02-17T16:57:45.663Z,100.00
2023-02-17T17:00:16.880Z,100.00
2023-02-17T17:02:45.136Z,100.00
2023-02-17T17:05:12.894Z,100.00
2023-02-17T17:07:40.851Z,100.00
2023-02-17T17:10:23.397Z,100.00
2023-02-17T17:12:50.099Z,100.00
2023-02-17T17:15:17.817Z,100.00
2023-02-17T17:17:48.566Z,100.00
2023-02-17T17:20:18.911Z,100.00
2023-02-17T17:22:46.818Z,100.00
2023-02-17T17:25:14.682Z,100.00
2023-02-17T17:27:41.969Z,100.00
2023-02-17T17:30:17.491Z,100.00
2023-02-17T17:32:44.344Z,100.00
2023-02-17T17:35:11.065Z,100.00
2023-02-17T17:37:39.467Z,100.00
2023-02-17T17:40:07.329Z,100.00
2023-02-17T17:42:37.657Z,100.00
2023-02-17T17:45:04.578Z,100.00
2023-02-17T17:47:31.517Z,100.00
2023-02-17T17:49:58.473Z,100.00
2023-02-17T17:52:25.327Z,100.00
2023-02-17T17:54:52.231Z,100.00
2023-02-17T17:57:18.895Z,100.00
2023-02-17T17:59:45.719Z,100.00
2023-02-17T18:02:12.462Z,100.00
2023-02-17T18:04:39.682Z,100.00
2023-02-17T18:07:06.633Z,100.00
2023-02-17T18:09:36.803Z,100.00
2023-02-17T18:12:15.960Z,100.00
2023-02-17T18:14:44.282Z,100.00
2023-02-17T18:17:14.086Z,100.00
2023-02-17T18:19:41.496Z,100.00
2023-02-17T18:22:08.254Z,100.00
2023-02-17T18:24:35.067Z,100.00
2023-02-17T18:27:01.827Z,100.00
2023-02-17T18:29:28.501Z,100.00
2023-02-17T18:31:55.316Z,100.00
2023-02-17T18:34:22.294Z,100.00
2023-02-17T18:36:49.196Z,100.00
2023-02-17T18:39:16.115Z,100.00
2023-02-17T18:41:43.032Z,100.00
2023-02-17T18:44:11.631Z,100.00
2023-02-17T18:46:39.339Z,100.00
2023-02-17T18:49:06.937Z,100.00
2023-02-17T18:51:34.113Z,100.00
2023-02-17T18:54:01.869Z,100.00
2023-02-17T18:56:31.600Z,100.00
2023-02-17T18:58:59.159Z,100.00
2023-02-17T19:01:28.829Z,100.00
2023-02-17T19:03:56.918Z,100.00
2023-02-17T19:06:27.002Z,100.00
2023-02-17T19:08:53.953Z,100.00
2023-02-17T19:11:22.606Z,100.00
2023-02-17T19:13:50.330Z,100.00
2023-02-17T19:16:21.686Z,100.00
2023-02-17T19:18:49.169Z,100.00
2023-02-17T19:21:16.478Z,100.00
2023-02-17T19:23:43.803Z,100.00
2023-02-17T19:26:13.175Z,100.00
2023-02-17T19:28:41.527Z,100.00
2023-02-17T19:31:10.688Z,100.00
2023-02-17T19:33:37.953Z,100.00
2023-02-17T19:36:13.319Z,100.00
2023-02-17T19:38:40.017Z,100.00
2023-02-17T19:41:09.249Z,100.00
2023-02-17T19:43:36.238Z,100.00
2023-02-17T19:46:03.522Z,100.00
2023-02-17T19:48:30.570Z,100.00
2023-02-17T19:51:03.836Z,100.00
2023-02-17T19:53:31.891Z,100.00
2023-02-17T19:56:12.811Z,100.00
2023-02-17T19:58:41.326Z,100.00
2023-02-17T20:01:11.240Z,100.00
2023-02-17T20:03:38.270Z,100.00
2023-02-17T20:06:19.286Z,100.00
2023-02-17T20:08:46.655Z,100.00
2023-02-17T20:11:14.272Z,100.00
2023-02-17T20:13:46.190Z,100.00
2023-02-17T20:16:15.249Z,100.00
2023-02-17T20:18:44.891Z,100.00
2023-02-17T20:21:14.364Z,100.00
2023-02-17T20:23:41.055Z,100.00
2023-02-17T20:26:21.722Z,100.00
2023-02-17T20:28:49.295Z,100.00
2023-02-17T20:31:16.692Z,100.00
2023-02-17T20:33:44.392Z,100.00
2023-02-17T20:36:12.095Z,100.00
2023-02-17T20:38:39.778Z,100.00
2023-02-17T20:41:14.146Z,100.00
2023-02-17T20:43:41.329Z,100.00
2023-02-17T20:46:12.925Z,100.00
2023-02-17T20:48:39.732Z,100.00
2023-02-17T20:51:06.499Z,100.00
2023-02-17T20:53:33.811Z,100.00
2023-02-17T20:56:00.698Z,100.00
2023-02-17T20:58:27.416Z,100.00
2023-02-17T21:00:54.118Z,100.00
2023-02-17T21:03:20.857Z,100.00
2023-02-17T21:05:47.959Z,100.00
2023-02-17T21:08:14.627Z,100.00
2023-02-17T21:10:41.321Z,100.00
2023-02-17T21:13:08.059Z,100.00
2023-02-17T21:15:34.919Z,100.00
2023-02-17T21:18:01.732Z,100.00
2023-02-17T21:20:28.446Z,100.00
2023-02-17T21:22:55.113Z,100.00
2023-02-17T21:25:21.847Z,100.00
2023-02-17T21:27:48.529Z,100.00
2023-02-17T21:30:15.528Z,100.00
2023-02-17T21:32:42.576Z,100.00
2023-02-17T21:35:10.764Z,100.00
2023-02-17T21:37:39.115Z,100.00
2023-02-17T21:40:07.841Z,100.00
2023-02-17T21:42:55.570Z,100.00
2023-02-17T21:45:22.776Z,100.00
2023-02-17T21:47:49.523Z,100.00
2023-02-17T21:50:16.903Z,100.00
2023-02-17T21:52:43.611Z,100.00
2023-02-17T21:55:10.496Z,100.00
2023-02-17T21:57:37.159Z,100.00
2023-02-17T22:00:04.541Z,100.00
2023-02-17T22:02:31.186Z,100.00
2023-02-17T22:04:57.893Z,100.00
2023-02-17T22:07:24.567Z,100.00
2023-02-17T22:09:51.347Z,100.00
2023-02-17T22:12:19.042Z,100.00
2023-02-17T22:14:45.790Z,100.00
2023-02-17T22:17:12.503Z,100.00
2023-02-17T22:19:39.150Z,100.00
2023-02-17T22:22:05.861Z,100.00
2023-02-17T22:24:32.559Z,100.00
2023-02-17T22:26:59.358Z,100.00
2023-02-17T22:29:26.169Z,100.00
2023-02-17T22:31:55.931Z,100.00
2023-02-17T22:34:23.707Z,100.00
2023-02-17T22:36:50.419Z,100.00
2023-02-17T22:39:17.863Z,100.00
2023-02-17T22:41:44.668Z,100.00
2023-02-17T22:44:11.349Z,100.00
2023-02-17T22:46:38.241Z,100.00
2023-02-17T22:49:05.335Z,100.00
2023-02-17T22:51:36.199Z,100.00
2023-02-17T22:54:07.635Z,100.00
2023-02-17T22:56:34.436Z,100.00
2023-02-17T22:59:03.890Z,100.00
2023-02-17T23:01:34.613Z,100.00
2023-02-17T23:04:02.099Z,100.00
2023-02-17T23:06:31.945Z,100.00
2023-02-17T23:09:00.119Z,100.00
2023-02-17T23:11:48.855Z,100.00
2023-02-17T23:14:18.769Z,100.00
2023-02-17T23:16:45.871Z,100.00
2023-02-17T23:19:16.464Z,100.00
2023-02-17T23:21:44.972Z,100.00
2023-02-17T23:24:12.041Z,100.00
2023-02-17T23:26:39.166Z,100.00
2023-02-17T23:29:05.999Z,100.00
2023-02-17T23:31:33.164Z,100.00
2023-02-17T23:33:59.968Z,100.00
2023-02-17T23:36:26.677Z,100.00
2023-02-17T23:38:53.403Z,100.00
2023-02-17T23:41:20.028Z,100.00
2023-02-17T23:43:46.755Z,100.00
2023-02-17T23:46:13.489Z,100.00
2023-02-17T23:48:40.281Z,100.00
2023-02-17T23:51:07.216Z,100.00
2023-02-17T23:53:34.130Z,100.00
2023-02-17T23:56:14.291Z,100.00
2023-02-17T23:58:41.220Z,100.00
